createdAt,value
2023-03-21T00:00:58.634Z,14.00
2023-03-21T00:03:27.215Z,15.10
2023-03-21T00:05:54.947Z,13.48
2023-03-21T00:08:25.459Z,18.05
2023-03-21T00:11:02.320Z,18.75
2023-03-21T00:13:38.311Z,18.60
2023-03-21T00:16:20.889Z,19.10
2023-03-21T00:18:54.405Z,14.60
2023-03-21T00:24:16.458Z,17.05
2023-03-21T00:26:44.910Z,16.27
2023-03-21T00:29:12.617Z,16.15
2023-03-21T00:31:40.305Z,17.27
2023-03-21T00:34:07.989Z,17.48
2023-03-21T00:36:35.717Z,19.95
2023-03-21T00:39:04.692Z,18.25
2023-03-21T00:41:42.485Z,18.65
2023-03-21T00:44:15.999Z,16.20
2023-03-21T00:46:57.111Z,16.63
2023-03-21T00:49:34.150Z,17.15
2023-03-21T00:52:18.341Z,15.32
2023-03-21T00:54:48.232Z,16.63
2023-03-21T00:57:16.826Z,13.02
2023-03-21T00:59:44.492Z,19.67
2023-03-21T01:02:15.015Z,17.98
2023-03-21T01:04:42.945Z,16.63
2023-03-21T01:07:11.125Z,11.70
2023-03-21T01:09:39.420Z,17.58
2023-03-21T01:12:07.211Z,14.80
2023-03-21T01:14:38.137Z,17.35
2023-03-21T01:17:06.648Z,18.55
2023-03-21T01:19:50.142Z,17.73
2023-03-21T01:22:18.768Z,14.20
2023-03-21T01:24:55.194Z,14.32
2023-03-21T01:27:26.222Z,21.35
2023-03-21T01:29:53.881Z,18.67
2023-03-21T01:32:21.867Z,17.05
2023-03-21T01:34:49.798Z,17.38
2023-03-21T01:37:17.815Z,16.67
2023-03-21T01:39:51.233Z,16.88
2023-03-21T01:42:19.880Z,15.85
2023-03-21T01:45:03.265Z,14.70
2023-03-21T01:47:45.681Z,17.67
2023-03-21T01:50:25.602Z,16.85
2023-03-21T01:53:01.361Z,15.52
2023-03-21T01:55:32.330Z,14.98
2023-03-21T01:58:30.107Z,15.38
2023-03-21T02:01:10.772Z,13.90
2023-03-21T02:03:51.230Z,11.88
2023-03-21T02:07:24.338Z,22.17
2023-03-21T02:09:56.382Z,13.35
2023-03-21T02:12:27.055Z,18.55
2023-03-21T02:14:56.316Z,13.63
2023-03-21T02:18:03.413Z,17.00
2023-03-21T02:21:00.266Z,18.65
2023-03-21T02:23:56.146Z,16.23
2023-03-21T02:27:03.382Z,14.20
2023-03-21T02:29:58.529Z,17.60
2023-03-21T02:32:59.637Z,15.02
2023-03-21T02:35:54.529Z,16.52
2023-03-21T02:38:37.775Z,15.82
2023-03-21T02:41:25.421Z,15.32
2023-03-21T02:44:21.306Z,14.45
2023-03-21T02:47:05.450Z,13.05
2023-03-21T02:49:43.671Z,14.77
2023-03-21T02:52:38.075Z,15.18
2023-03-21T02:55:28.741Z,16.65
2023-03-21T02:58:12.706Z,13.35
2023-03-21T03:00:50.457Z,9.55
2023-03-21T03:03:34.661Z,11.38
2023-03-21T03:06:19.321Z,19.13
2023-03-21T03:09:09.203Z,19.23
2023-03-21T03:11:44.025Z,11.55
2023-03-21T03:14:56.477Z,11.57
2023-03-21T03:17:37.339Z,13.57
2023-03-21T03:20:30.116Z,16.25
2023-03-21T03:23:19.053Z,17.15
2023-03-21T03:26:03.238Z,14.25
2023-03-21T03:28:38.741Z,14.68
2023-03-21T03:31:21.931Z,15.88
2023-03-21T03:33:59.684Z,14.07
2023-03-21T03:36:35.838Z,14.68
2023-03-21T03:39:14.754Z,18.20
2023-03-21T03:42:15.324Z,13.63
2023-03-21T03:44:55.309Z,12.93
2023-03-21T03:48:05.538Z,15.35
2023-03-21T03:50:55.254Z,15.68
2023-03-21T03:53:38.069Z,14.38
2023-03-21T03:56:09.782Z,13.13
2023-03-21T03:58:45.253Z,14.38
2023-03-21T04:01:16.133Z,18.27
2023-03-21T04:03:58.545Z,13.32
2023-03-21T04:06:32.345Z,14.57
2023-03-21T04:09:03.452Z,13.82
2023-03-21T04:11:33.819Z,17.85
2023-03-21T04:14:01.541Z,13.93
2023-03-21T04:16:32.823Z,14.02
2023-03-21T04:19:02.305Z,13.25
2023-03-21T04:21:30.611Z,12.95
2023-03-21T04:23:58.608Z,17.08
2023-03-21T04:26:32.887Z,18.42
2023-03-21T04:29:23.374Z,15.57
2023-03-21T04:32:17.769Z,17.08
2023-03-21T04:34:56.545Z,16.13
2023-03-21T04:37:24.900Z,15.77
2023-03-21T04:39:54.632Z,15.68
2023-03-21T04:42:22.701Z,16.45
2023-03-21T04:44:50.960Z,12.45
2023-03-21T04:47:20.442Z,15.32
2023-03-21T04:49:49.225Z,15.55
2023-03-21T04:52:17.354Z,17.48
2023-03-21T04:54:45.975Z,17.38
2023-03-21T04:57:13.954Z,18.35
2023-03-21T04:59:42.822Z,15.75
2023-03-21T05:02:10.790Z,15.30
2023-03-21T05:04:39.461Z,12.27
2023-03-21T05:07:07.970Z,15.32
2023-03-21T05:09:36.107Z,14.27
2023-03-21T05:12:04.554Z,13.65
2023-03-21T05:14:33.915Z,14.63
2023-03-21T05:17:05.549Z,14.65
2023-03-21T05:19:40.706Z,15.98
2023-03-21T05:22:12.109Z,14.60
2023-03-21T05:24:41.857Z,14.45
2023-03-21T05:27:26.139Z,16.73
2023-03-21T05:29:54.179Z,15.55
2023-03-21T05:32:21.977Z,15.73
2023-03-21T05:34:49.858Z,20.70
2023-03-21T05:37:18.902Z,12.52
2023-03-21T05:39:50.957Z,12.50
2023-03-21T05:42:25.949Z,16.42
2023-03-21T05:44:54.619Z,18.70
2023-03-21T05:47:29.956Z,15.20
2023-03-21T05:50:00.323Z,20.20
2023-03-21T05:52:29.743Z,18.90
2023-03-21T05:57:39.173Z,17.42
2023-03-21T06:00:10.637Z,18.08
2023-03-21T06:02:45.227Z,15.65
2023-03-21T06:05:37.421Z,16.38
2023-03-21T06:08:07.534Z,17.23
2023-03-21T06:10:35.642Z,16.45
2023-03-21T06:13:05.445Z,19.45
2023-03-21T06:15:34.960Z,18.17
2023-03-21T06:18:15.479Z,23.05
2023-03-21T06:20:54.799Z,13.40
2023-03-21T06:23:23.196Z,20.75
2023-03-21T06:25:51.394Z,21.67
2023-03-21T06:28:20.175Z,19.67
2023-03-21T06:30:47.861Z,17.90
2023-03-21T06:33:20.822Z,21.67
2023-03-21T06:35:57.478Z,25.58
2023-03-21T06:38:26.245Z,25.85
2023-03-21T06:40:54.487Z,25.20
2023-03-21T06:43:25.268Z,26.17
2023-03-21T06:45:52.996Z,26.98
2023-03-21T06:48:21.746Z,26.85
2023-03-21T06:50:52.685Z,33.85
2023-03-21T06:53:25.103Z,29.75
2023-03-21T06:56:14.052Z,23.90
2023-03-21T06:58:42.744Z,34.10
2023-03-21T07:01:18.240Z,29.58
2023-03-21T07:03:58.428Z,26.92
2023-03-21T07:06:28.558Z,31.80
2023-03-21T07:08:57.069Z,35.70
2023-03-21T07:11:25.706Z,34.83
2023-03-21T07:13:53.576Z,26.35
2023-03-21T07:16:21.866Z,32.08
2023-03-21T07:18:49.682Z,28.33
2023-03-21T07:21:18.036Z,24.25
2023-03-21T07:23:47.204Z,27.38
2023-03-21T07:26:16.207Z,24.25
2023-03-21T07:28:45.086Z,28.58
2023-03-21T07:31:16.213Z,24.90
2023-03-21T07:33:44.095Z,22.20
2023-03-21T07:36:16.319Z,24.65
2023-03-21T07:38:45.978Z,27.70
2023-03-21T07:41:13.970Z,20.67
2023-03-21T07:43:41.767Z,23.48
2023-03-21T07:46:12.114Z,22.13
2023-03-21T07:48:39.934Z,21.23
2023-03-21T07:51:07.818Z,21.52
2023-03-21T07:53:36.615Z,18.35
2023-03-21T07:56:04.830Z,23.42
2023-03-21T07:58:34.231Z,24.42
2023-03-21T08:01:02.588Z,21.77
2023-03-21T08:03:33.265Z,19.33
2023-03-21T08:06:01.777Z,23.13
2023-03-21T08:08:29.463Z,14.70
2023-03-21T08:10:57.270Z,23.17
2023-03-21T08:13:26.068Z,24.02
2023-03-21T08:15:53.797Z,25.73
2023-03-21T08:18:21.677Z,19.10
2023-03-21T08:20:57.620Z,20.27
2023-03-21T08:23:26.052Z,15.93
2023-03-21T08:25:55.272Z,21.08
2023-03-21T08:28:23.911Z,16.42
2023-03-21T08:30:51.743Z,15.43
2023-03-21T08:33:20.888Z,21.30
2023-03-21T08:35:49.086Z,15.27
2023-03-21T08:38:17.055Z,17.42
2023-03-21T08:40:44.877Z,14.98
2023-03-21T08:43:14.693Z,14.77
2023-03-21T08:45:42.756Z,20.13
2023-03-21T08:48:10.658Z,13.70
2023-03-21T08:50:38.406Z,13.70
2023-03-21T08:53:06.130Z,16.25
2023-03-21T08:55:34.769Z,21.85
2023-03-21T08:58:02.463Z,13.05
2023-03-21T09:00:30.943Z,17.30
2023-03-21T09:02:58.994Z,19.35
2023-03-21T09:05:28.325Z,18.02
2023-03-21T09:07:56.065Z,15.13
2023-03-21T09:10:24.568Z,18.02
2023-03-21T09:12:54.585Z,13.02
2023-03-21T09:15:28.888Z,23.92
2023-03-21T09:17:58.432Z,17.13
2023-03-21T09:20:31.398Z,17.63
2023-03-21T09:23:01.078Z,14.98
2023-03-21T09:25:31.264Z,19.63
2023-03-21T09:28:04.889Z,15.02
2023-03-21T09:30:35.043Z,17.35
2023-03-21T09:33:08.610Z,16.35
2023-03-21T09:35:37.065Z,20.58
2023-03-21T09:38:05.919Z,13.40
2023-03-21T09:41:21.437Z,15.65
2023-03-21T09:44:41.768Z,18.73
2023-03-21T09:47:25.178Z,17.50
2023-03-21T09:50:13.687Z,15.95
2023-03-21T09:52:54.585Z,9.80
2023-03-21T09:55:34.740Z,15.90
2023-03-21T09:58:28.542Z,8.43
2023-03-21T10:01:33.006Z,12.50
2023-03-21T10:04:06.414Z,12.45
2023-03-21T10:06:41.217Z,10.50
2023-03-21T10:09:23.539Z,13.93
2023-03-21T10:11:59.515Z,11.15
2023-03-21T10:14:32.932Z,12.95
2023-03-21T10:17:32.194Z,11.93
2023-03-21T10:20:23.122Z,11.98
2023-03-21T10:22:54.970Z,13.32
2023-03-21T10:25:41.109Z,9.25
2023-03-21T10:28:17.579Z,9.85
2023-03-21T10:30:54.852Z,14.75
2023-03-21T10:33:33.359Z,11.50
2023-03-21T10:36:06.631Z,13.63
2023-03-21T10:38:36.030Z,8.45
2023-03-21T10:41:03.819Z,11.60
2023-03-21T10:43:37.724Z,5.90
2023-03-21T10:46:18.941Z,11.27
2023-03-21T10:48:52.970Z,11.15
2023-03-21T10:51:32.798Z,8.10
2023-03-21T10:54:15.664Z,9.38
2023-03-21T10:56:57.883Z,10.70
2023-03-21T10:59:30.383Z,8.85
2023-03-21T11:01:58.347Z,6.03
2023-03-21T11:04:29.460Z,9.48
2023-03-21T11:07:04.144Z,6.72
2023-03-21T11:10:20.003Z,7.65
2023-03-21T11:12:59.803Z,8.55
2023-03-21T11:15:47.317Z,7.05
2023-03-21T11:18:19.474Z,8.57
2023-03-21T11:20:58.739Z,8.85
2023-03-21T11:23:31.561Z,8.70
2023-03-21T11:26:02.111Z,8.88
2023-03-21T11:28:37.898Z,8.63
2023-03-21T11:31:09.324Z,8.90
2023-03-21T11:33:44.454Z,11.18
2023-03-21T11:36:21.944Z,7.88
2023-03-21T11:39:12.682Z,9.00
2023-03-21T11:41:42.690Z,8.68
2023-03-21T11:44:34.251Z,7.95
2023-03-21T11:47:02.701Z,8.55
2023-03-21T11:49:31.298Z,10.23
2023-03-21T11:52:27.237Z,7.82
2023-03-21T11:55:21.512Z,9.13
2023-03-21T11:58:44.083Z,10.60
2023-03-21T12:01:51.922Z,8.48
2023-03-21T12:04:46.113Z,6.97
2023-03-21T12:07:51.402Z,8.77
2023-03-21T12:10:54.581Z,10.10
2023-03-21T12:13:41.507Z,11.38
2023-03-21T12:16:22.497Z,10.27
2023-03-21T12:19:08.020Z,9.27
2023-03-21T12:22:15.384Z,8.02
2023-03-21T12:24:56.861Z,8.85
2023-03-21T12:28:32.012Z,11.15
2023-03-21T12:31:41.257Z,10.80
2023-03-21T12:34:28.466Z,11.35
2023-03-21T12:38:01.931Z,11.93
2023-03-21T12:40:35.523Z,11.43
2023-03-21T12:43:48.109Z,10.57
2023-03-21T12:46:29.992Z,5.68
2023-03-21T12:49:00.862Z,6.85
2023-03-21T12:51:35.416Z,8.90
2023-03-21T12:54:26.712Z,6.47
2023-03-21T12:57:31.492Z,15.88
2023-03-21T13:00:34.572Z,10.77
2023-03-21T13:03:30.565Z,10.25
2023-03-21T13:06:09.940Z,5.70
2023-03-21T13:08:58.951Z,10.10
2023-03-21T13:11:30.789Z,7.13
2023-03-21T13:14:22.627Z,8.07
2023-03-21T13:17:01.419Z,7.43
2023-03-21T13:19:39.119Z,12.23
2023-03-21T13:22:22.528Z,9.75
2023-03-21T13:25:15.364Z,7.35
2023-03-21T13:27:47.215Z,4.85
2023-03-21T13:30:14.875Z,3.25
2023-03-21T13:32:46.270Z,7.43
2023-03-21T13:35:41.396Z,5.82
2023-03-21T13:38:14.650Z,5.72
2023-03-21T13:40:51.370Z,4.90
2023-03-21T13:43:45.544Z,6.38
2023-03-21T13:46:20.389Z,32.95
2023-03-21T13:48:59.508Z,9.07
2023-03-21T13:51:36.870Z,8.90
2023-03-21T13:54:07.721Z,7.65
2023-03-21T13:56:47.406Z,5.78
2023-03-21T13:59:39.228Z,7.53
2023-03-21T14:02:37.726Z,5.07
2023-03-21T14:05:18.906Z,6.70
2023-03-21T14:07:52.867Z,5.00
2023-03-21T14:10:40.489Z,6.95
2023-03-21T14:13:11.953Z,4.72
2023-03-21T14:15:56.679Z,6.32
2023-03-21T14:18:51.607Z,3.85
2023-03-21T14:21:31.239Z,5.30
2023-03-21T14:24:12.530Z,5.93
2023-03-21T14:26:53.723Z,3.38
2023-03-21T14:29:31.619Z,4.25
2023-03-21T14:32:00.786Z,4.55
2023-03-21T14:34:32.219Z,2.90
2023-03-21T14:37:00.456Z,5.95
2023-03-21T14:39:32.184Z,4.20
2023-03-21T14:42:12.216Z,4.13
2023-03-21T14:44:58.097Z,3.95
2023-03-21T14:47:28.892Z,4.55
2023-03-21T14:49:58.414Z,2.65
2023-03-21T14:52:31.224Z,4.97
2023-03-21T14:55:01.024Z,5.32
2023-03-21T14:57:32.770Z,5.10
2023-03-21T15:00:12.447Z,5.38
2023-03-21T15:02:42.211Z,3.88
2023-03-21T15:05:16.440Z,4.22
2023-03-21T15:07:59.730Z,4.78
2023-03-21T15:10:30.867Z,2.30
2023-03-21T15:13:03.139Z,5.72
2023-03-21T15:15:33.004Z,2.35
2023-03-21T15:18:06.939Z,4.90
2023-03-21T15:20:37.965Z,2.97
2023-03-21T15:23:32.694Z,5.57
2023-03-21T15:26:04.275Z,4.10
2023-03-21T15:28:35.077Z,2.03
2023-03-21T15:31:04.858Z,3.60
2023-03-21T15:33:33.182Z,7.97
2023-03-21T15:36:01.195Z,4.65
2023-03-21T15:38:40.082Z,5.18
2023-03-21T15:41:29.223Z,4.63
2023-03-21T15:44:01.601Z,6.63
2023-03-21T15:46:50.854Z,5.15
2023-03-21T15:49:32.885Z,3.45
2023-03-21T15:52:11.302Z,2.25
2023-03-21T15:54:50.233Z,3.67
2023-03-21T15:57:38.144Z,5.35
2023-03-21T16:00:35.974Z,4.20
2023-03-21T16:03:18.877Z,7.00
2023-03-21T16:06:10.793Z,3.50
2023-03-21T16:08:52.806Z,3.88
2023-03-21T16:11:25.139Z,2.55
2023-03-21T16:13:54.832Z,4.60
2023-03-21T16:16:26.397Z,7.57
2023-03-21T16:18:58.226Z,4.85
2023-03-21T16:21:30.651Z,8.90
2023-03-21T16:23:58.801Z,4.35
2023-03-21T16:26:30.800Z,10.40
2023-03-21T16:28:59.551Z,11.25
2023-03-21T16:31:30.992Z,7.45
2023-03-21T16:33:58.648Z,4.63
2023-03-21T16:36:32.773Z,5.30
2023-03-21T16:39:00.708Z,8.70
2023-03-21T16:41:28.501Z,5.35
2023-03-21T16:43:56.216Z,8.60
2023-03-21T16:46:27.133Z,3.25
2023-03-21T16:48:57.850Z,5.13
2023-03-21T16:51:36.647Z,5.97
2023-03-21T16:54:04.617Z,4.57
2023-03-21T16:56:50.711Z,3.85
2023-03-21T17:01:48.246Z,7.88
2023-03-21T17:04:18.388Z,2.75
2023-03-21T17:06:50.339Z,3.83
2023-03-21T17:09:22.577Z,4.05
2023-03-21T17:11:50.472Z,4.00
2023-03-21T17:14:18.689Z,7.35
2023-03-21T17:16:46.681Z,3.55
2023-03-21T17:19:16.690Z,3.20
2023-03-21T17:21:44.920Z,4.93
2023-03-21T17:24:13.403Z,3.75
2023-03-21T17:26:41.528Z,2.13
2023-03-21T17:29:15.429Z,3.10
2023-03-21T17:31:47.305Z,5.60
2023-03-21T17:34:15.986Z,2.38
2023-03-21T17:36:47.372Z,9.05
2023-03-21T17:39:24.174Z,5.05
2023-03-21T17:41:53.116Z,4.30
2023-03-21T17:44:21.791Z,6.93
2023-03-21T17:46:51.601Z,5.50
2023-03-21T17:49:21.135Z,3.38
2023-03-21T17:51:49.008Z,6.03
2023-03-21T17:54:16.643Z,5.57
2023-03-21T17:56:44.641Z,7.80
2023-03-21T17:59:14.142Z,4.30
2023-03-21T18:01:42.738Z,4.20
2023-03-21T18:04:11.098Z,9.00
2023-03-21T18:06:39.848Z,9.02
2023-03-21T18:09:11.563Z,8.18
2023-03-21T18:11:41.134Z,5.55
2023-03-21T18:14:16.290Z,7.93
2023-03-21T18:16:46.329Z,5.50
2023-03-21T18:19:14.926Z,4.78
2023-03-21T18:21:45.901Z,6.05
2023-03-21T18:24:14.856Z,7.60
2023-03-21T18:26:43.928Z,7.32
2023-03-21T18:32:07.914Z,6.68
2023-03-21T18:34:39.083Z,14.55
2023-03-21T18:37:11.364Z,8.73
2023-03-21T18:39:42.333Z,12.27
2023-03-21T18:42:16.988Z,8.27
2023-03-21T18:44:47.641Z,9.30
2023-03-21T18:47:15.809Z,8.13
2023-03-21T18:52:32.998Z,12.27
2023-03-21T18:55:00.835Z,5.78
2023-03-21T18:57:38.150Z,12.70
2023-03-21T19:00:13.525Z,11.35
2023-03-21T19:02:46.898Z,12.32
2023-03-21T19:05:17.769Z,11.38
2023-03-21T19:07:48.042Z,16.88
2023-03-21T19:10:20.707Z,17.20
2023-03-21T19:12:51.777Z,13.55
2023-03-21T19:15:22.492Z,11.60
2023-03-21T19:20:46.042Z,9.80
2023-03-21T19:23:14.094Z,8.70
2023-03-21T19:25:42.776Z,14.57
2023-03-21T19:28:10.968Z,8.38
2023-03-21T19:30:39.818Z,15.73
2023-03-21T19:33:07.740Z,10.73
2023-03-21T19:35:37.736Z,9.98
2023-03-21T19:38:06.267Z,8.52
2023-03-21T19:40:34.212Z,7.95
2023-03-21T19:43:21.536Z,9.43
2023-03-21T19:45:49.931Z,11.95
2023-03-21T19:48:17.842Z,13.27
2023-03-21T19:51:20.102Z,11.82
2023-03-21T19:53:34.410Z,12.07
2023-03-21T19:56:04.919Z,11.82
2023-03-21T19:58:38.717Z,8.05
2023-03-21T20:01:06.870Z,8.77
2023-03-21T20:03:35.004Z,10.38
2023-03-21T20:06:08.888Z,14.05
2023-03-21T20:09:05.290Z,13.77
2023-03-21T20:11:24.829Z,13.63
2023-03-21T20:13:52.536Z,14.32
2023-03-21T20:16:20.648Z,21.17
2023-03-21T20:18:48.511Z,15.13
2023-03-21T20:21:21.512Z,12.98
2023-03-21T20:26:20.355Z,12.10
2023-03-21T20:29:00.229Z,17.60
2023-03-21T20:31:35.820Z,14.20
2023-03-21T20:34:03.481Z,14.88
2023-03-21T20:36:40.031Z,10.77
2023-03-21T20:39:08.546Z,20.15
2023-03-21T20:41:36.294Z,12.63
2023-03-21T20:46:51.982Z,13.02
2023-03-21T20:49:22.903Z,8.48
2023-03-21T20:54:39.033Z,10.02
2023-03-21T20:57:06.808Z,8.55
2023-03-21T20:59:35.231Z,9.52
2023-03-21T21:02:03.864Z,12.60
2023-03-21T21:05:15.655Z,14.35
2023-03-21T21:07:22.659Z,12.93
2023-03-21T21:09:50.596Z,10.75
2023-03-21T21:12:19.452Z,16.10
2023-03-21T21:14:48.316Z,9.73
2023-03-21T21:17:31.103Z,11.10
2023-03-21T21:20:16.314Z,15.48
2023-03-21T21:22:59.615Z,17.02
2023-03-21T21:25:32.146Z,15.05
2023-03-21T21:28:01.636Z,16.08
2023-03-21T21:30:30.428Z,14.68
2023-03-21T21:33:00.789Z,22.50
2023-03-21T21:35:28.807Z,11.05
2023-03-21T21:37:56.535Z,18.50
2023-03-21T21:40:24.265Z,14.55
2023-03-21T21:42:52.165Z,17.85
2023-03-21T21:45:20.299Z,12.07
2023-03-21T21:47:48.242Z,17.48
2023-03-21T21:50:16.265Z,16.77
2023-03-21T21:52:44.076Z,21.05
2023-03-21T21:55:13.170Z,15.90
2023-03-21T21:57:40.992Z,15.35
2023-03-21T22:00:15.813Z,13.82
2023-03-21T22:02:43.555Z,14.73
2023-03-21T22:05:11.235Z,18.73
2023-03-21T22:07:39.285Z,17.17
2023-03-21T22:10:08.092Z,18.65
2023-03-21T22:12:36.153Z,13.02
2023-03-21T22:15:07.227Z,13.07
2023-03-21T22:17:36.350Z,12.85
2023-03-21T22:20:09.615Z,21.33
2023-03-21T22:22:37.598Z,14.23
2023-03-21T22:25:07.863Z,9.30
2023-03-21T22:27:36.424Z,17.23
2023-03-21T22:30:07.511Z,10.38
2023-03-21T22:32:37.966Z,17.17
2023-03-21T22:35:07.220Z,14.07
2023-03-21T22:37:37.688Z,14.88
2023-03-21T22:40:09.897Z,10.68
2023-03-21T22:42:38.044Z,12.32
2023-03-21T22:45:08.260Z,12.25
2023-03-21T22:47:36.450Z,17.30
2023-03-21T22:50:06.435Z,12.63
2023-03-21T22:52:34.253Z,25.17
2023-03-21T22:55:01.947Z,10.80
2023-03-21T22:57:29.879Z,12.85
2023-03-21T22:59:57.619Z,14.52
2023-03-21T23:02:25.608Z,9.70
2023-03-21T23:04:53.530Z,11.05
2023-03-21T23:07:21.455Z,10.18
2023-03-21T23:09:49.317Z,9.18
2023-03-21T23:12:17.172Z,14.77
2023-03-21T23:14:44.807Z,9.93
2023-03-21T23:17:12.654Z,7.90
2023-03-21T23:19:41.201Z,11.52
2023-03-21T23:22:09.040Z,8.77
2023-03-21T23:24:36.689Z,12.52
2023-03-21T23:27:05.528Z,7.82
2023-03-21T23:29:33.294Z,9.23
2023-03-21T23:32:00.982Z,10.98
2023-03-21T23:34:28.736Z,7.72
2023-03-21T23:36:56.597Z,14.15
2023-03-21T23:39:24.503Z,12.50
2023-03-21T23:41:52.188Z,12.38
2023-03-21T23:44:19.970Z,12.20
2023-03-21T23:46:47.757Z,10.20
2023-03-21T23:49:15.508Z,14.38
2023-03-21T23:51:43.239Z,11.88
2023-03-21T23:54:11.193Z,14.10
2023-03-21T23:56:39.141Z,11.95
2023-03-21T23:59:06.805Z,8.23
